createdAt,value
2023-02-28T16:00:36.271Z,12.35
2023-02-28T16:03:27.985Z,11.48
2023-02-28T16:06:18.139Z,11.23
2023-02-28T16:08:46.810Z,12.05
2023-02-28T16:11:15.057Z,11.45
2023-02-28T16:13:43.714Z,13.10
2023-02-28T16:16:21.067Z,12.55
2023-02-28T16:18:49.978Z,12.90
2023-02-28T16:21:18.618Z,12.88
2023-02-28T16:23:47.173Z,11.88
2023-02-28T16:26:24.614Z,11.88
2023-02-28T16:28:53.665Z,12.55
2023-02-28T16:31:22.256Z,12.95
2023-02-28T16:33:51.151Z,13.65
2023-02-28T16:36:26.412Z,12.48
2023-02-28T16:38:56.417Z,13.07
2023-02-28T16:41:27.902Z,12.43
2023-02-28T16:44:01.418Z,13.95
2023-02-28T16:46:32.797Z,13.45
2023-02-28T16:49:01.817Z,14.25
2023-02-28T16:51:30.649Z,14.95
2023-02-28T16:54:00.531Z,15.40
2023-02-28T16:56:28.799Z,15.07
2023-02-28T16:59:02.105Z,14.63
2023-02-28T17:01:32.327Z,14.73
2023-02-28T17:04:01.443Z,15.10
2023-02-28T19:46:32.960Z,37.25
2023-02-28T19:49:01.849Z,33.22
2023-02-28T19:51:30.124Z,35.47
2023-02-28T19:53:59.114Z,36.33
2023-02-28T19:56:27.537Z,35.65
2023-02-28T19:58:58.510Z,33.55
2023-02-28T20:01:26.993Z,33.58
2023-02-28T20:03:55.811Z,32.22
2023-02-28T20:06:24.609Z,34.50
2023-02-28T20:08:55.273Z,35.03
2023-02-28T20:11:23.957Z,35.90
2023-02-28T20:13:57.241Z,34.30
2023-02-28T20:16:29.436Z,32.53
2023-02-28T20:18:58.610Z,32.10
2023-02-28T20:21:27.282Z,31.98
2023-02-28T20:23:56.449Z,31.63
2023-02-28T20:26:24.788Z,36.58
2023-02-28T20:28:53.580Z,37.45
2023-02-28T20:31:26.432Z,35.75
2023-02-28T20:33:55.096Z,32.97
2023-02-28T20:36:23.804Z,32.88
2023-02-28T20:38:53.395Z,32.63
2023-02-28T20:41:23.173Z,33.40
2023-02-28T20:43:58.176Z,33.17
2023-02-28T20:46:27.180Z,35.53
2023-02-28T20:48:56.185Z,33.05
2023-02-28T20:51:25.011Z,33.45
2023-02-28T20:53:53.730Z,35.33
2023-02-28T20:56:23.936Z,33.78
2023-02-28T20:58:56.040Z,32.55
2023-02-28T21:01:28.557Z,35.45
2023-02-28T21:04:02.651Z,34.65
2023-02-28T21:06:33.858Z,35.15
2023-02-28T21:09:03.955Z,34.92
2023-02-28T21:11:34.819Z,35.10
2023-02-28T21:14:05.495Z,34.97
2023-02-28T21:16:35.863Z,37.70
2023-02-28T21:19:06.400Z,36.58
2023-02-28T21:21:39.879Z,35.75
2023-02-28T21:24:09.497Z,38.55
2023-02-28T21:26:38.852Z,37.42
2023-02-28T21:29:07.833Z,37.90
2023-02-28T21:31:36.691Z,37.42
2023-02-28T21:34:07.515Z,36.85
2023-02-28T21:36:41.263Z,41.33
2023-02-28T21:39:14.532Z,37.78
2023-02-28T21:41:43.225Z,41.60
2023-02-28T21:44:18.907Z,39.80
2023-02-28T21:46:49.230Z,41.03
2023-02-28T21:49:18.224Z,39.45
2023-02-28T21:51:46.654Z,39.92
2023-02-28T21:54:15.349Z,40.38
2023-02-28T21:56:43.651Z,40.80
2023-02-28T21:59:12.419Z,43.28
2023-02-28T22:01:44.208Z,37.28
2023-02-28T22:04:21.660Z,41.22
2023-02-28T22:06:52.634Z,41.75
2023-02-28T22:09:22.091Z,42.22
